Kashi, China
Current Conditions -  °F | °C
As of 6:00 PM on Saturday 22 Nov 2014 (Local Time) from ZWSH Reporting Station
Clear Clear  
Wind Chill: 43°   Ceiling: Unl
Heat Index: 46°   Visibility: 6mi
Dew Point: 16°   Wind: 7mph
Humidity: 29%   Direction: 90°E
Pressure: 30.12"   Gusts: NA
Location:  39.48°N, 75.97°E
Report Text: ZWSH 221000Z 09003MPS 060V120 CAVOK 08/M09 Q1020 NOSIG
Loading
Personal Weather Stations






























Interactive Weather Map New forecast layout! Learn more

10-Day Weather Forecast

Advertisements
Track Severe Weather on mobile